createdAt,value
2018-05-09T00:01:55.184Z,16.70
2018-05-09T00:04:21.400Z,16.70
2018-05-09T00:06:47.812Z,16.70
2018-05-09T00:09:14.236Z,16.70
2018-05-09T00:11:41.400Z,16.60
2018-05-09T00:14:07.782Z,16.50
2018-05-09T00:16:34.224Z,16.40
2018-05-09T00:19:00.712Z,16.40
2018-05-09T00:21:27.123Z,16.20
2018-05-09T00:23:54.279Z,16.30
2018-05-09T00:26:20.652Z,16.30
2018-05-09T00:28:47.054Z,16.40
2018-05-09T00:31:13.441Z,16.30
2018-05-09T00:33:39.825Z,16.30
2018-05-09T00:36:06.228Z,16.20
2018-05-09T00:38:32.628Z,16.20
2018-05-09T00:40:59.040Z,16.00
2018-05-09T00:43:25.518Z,16.10
2018-05-09T00:45:52.503Z,16.10
2018-05-09T00:48:18.916Z,16.10
2018-05-09T00:50:45.315Z,15.90
2018-05-09T00:53:12.490Z,16.00
2018-05-09T00:55:39.608Z,16.00
2018-05-09T00:58:06.789Z,16.00
2018-05-09T01:00:33.171Z,16.00
2018-05-09T01:03:00.342Z,16.00
2018-05-09T01:05:26.864Z,16.00
2018-05-09T01:07:54.039Z,15.80
2018-05-09T01:10:20.498Z,15.80
2018-05-09T01:12:46.909Z,15.80
2018-05-09T01:15:13.384Z,15.90
2018-05-09T01:17:39.755Z,15.90
2018-05-09T01:20:06.166Z,16.00
2018-05-09T01:22:32.520Z,16.00
2018-05-09T01:24:58.969Z,15.80
2018-05-09T01:27:25.356Z,15.80
2018-05-09T01:29:52.527Z,15.70
2018-05-09T01:32:19.849Z,15.60
2018-05-09T01:34:46.216Z,15.50
2018-05-09T01:37:12.604Z,15.60
2018-05-09T01:39:38.986Z,15.50
2018-05-09T01:42:05.391Z,15.50
2018-05-09T01:44:32.604Z,15.60
2018-05-09T01:46:59.007Z,15.60
2018-05-09T01:49:25.392Z,15.50
2018-05-09T01:51:51.785Z,15.50
2018-05-09T01:54:18.169Z,15.50
2018-05-09T01:56:44.579Z,15.50
2018-05-09T01:59:11.004Z,15.50
2018-05-09T02:01:37.374Z,15.30
2018-05-09T02:04:03.785Z,15.30
2018-05-09T02:06:30.928Z,15.30
2018-05-09T02:08:57.315Z,15.30
2018-05-09T02:11:23.695Z,15.30
2018-05-09T02:13:50.925Z,15.20
2018-05-09T02:16:17.319Z,15.20
2018-05-09T02:18:43.740Z,15.20
2018-05-09T02:21:10.119Z,15.20
2018-05-09T02:23:36.597Z,15.20
2018-05-09T02:26:02.991Z,15.20
2018-05-09T02:28:29.436Z,15.20
2018-05-09T02:30:55.836Z,15.30
2018-05-09T02:33:22.251Z,15.20
2018-05-09T02:35:48.624Z,15.30
2018-05-09T02:38:15.058Z,15.20
2018-05-09T02:40:42.233Z,15.10
2018-05-09T02:43:08.582Z,15.00
2018-05-09T02:45:35.009Z,15.10
2018-05-09T02:48:01.410Z,15.20
2018-05-09T02:50:28.623Z,15.20
2018-05-09T02:52:55.000Z,15.20
2018-05-09T02:55:21.502Z,15.20
2018-05-09T02:57:48.032Z,15.10
2018-05-09T03:00:14.440Z,15.00
2018-05-09T03:02:40.869Z,14.90
2018-05-09T03:05:07.283Z,15.00
2018-05-09T03:07:33.681Z,14.90
2018-05-09T03:10:00.806Z,14.80
2018-05-09T03:12:27.201Z,14.80
2018-05-09T03:14:53.580Z,14.80
2018-05-09T03:17:20.757Z,14.80
2018-05-09T03:19:47.135Z,14.80
2018-05-09T03:22:13.523Z,14.90
2018-05-09T03:24:40.648Z,14.90
2018-05-09T03:27:07.774Z,14.80
2018-05-09T03:29:34.174Z,14.80
2018-05-09T03:32:01.248Z,14.90
2018-05-09T03:34:27.651Z,14.90
2018-05-09T03:36:54.042Z,14.70
2018-05-09T03:39:21.147Z,14.80
2018-05-09T03:41:47.548Z,14.80
2018-05-09T03:44:14.706Z,14.80
2018-05-09T03:46:41.115Z,14.80
2018-05-09T03:49:07.525Z,14.50
2018-05-09T03:51:34.687Z,14.50
2018-05-09T03:54:01.119Z,14.50
2018-05-09T03:56:27.616Z,14.50
2018-05-09T03:58:54.026Z,14.40
2018-05-09T04:01:20.450Z,14.50
2018-05-09T04:04:05.346Z,14.60
2018-05-09T04:06:50.052Z,14.60
2018-05-09T04:09:34.999Z,14.60
2018-05-09T04:12:02.263Z,14.60
2018-05-09T04:14:28.700Z,14.60
2018-05-09T04:16:55.135Z,14.70
2018-05-09T04:19:21.538Z,14.70
2018-05-09T04:21:47.947Z,14.60
2018-05-09T04:24:14.363Z,14.50
2018-05-09T04:26:40.736Z,14.40
2018-05-09T04:29:07.844Z,14.40
2018-05-09T04:31:34.212Z,14.40
2018-05-09T04:34:00.579Z,14.60
2018-05-09T04:36:27.061Z,14.70
2018-05-09T04:38:54.210Z,14.70
2018-05-09T04:41:21.358Z,14.80
2018-05-09T04:43:48.456Z,14.80
2018-05-09T04:46:14.915Z,14.80
2018-05-09T04:48:42.037Z,14.70
2018-05-09T04:51:08.591Z,14.70
2018-05-09T04:53:34.958Z,14.70
2018-05-09T04:56:02.095Z,14.70
2018-05-09T04:58:29.244Z,14.70
2018-05-09T05:00:56.392Z,14.70
2018-05-09T05:03:23.571Z,14.70
2018-05-09T05:05:50.056Z,14.70
2018-05-09T05:08:16.485Z,14.80
2018-05-09T05:10:42.882Z,14.80
2018-05-09T05:13:09.291Z,14.80
2018-05-09T05:15:35.937Z,14.70
2018-05-09T05:18:02.219Z,14.60
2018-05-09T05:20:28.678Z,14.70
2018-05-09T05:22:55.112Z,14.80
2018-05-09T05:25:22.357Z,15.10
2018-05-09T05:27:48.748Z,15.10
2018-05-09T05:30:15.142Z,15.20
2018-05-09T05:32:41.633Z,15.20
2018-05-09T05:35:08.023Z,15.30
2018-05-09T05:37:34.392Z,15.50
2018-05-09T05:40:01.582Z,15.60
2018-05-09T05:42:27.969Z,15.60
2018-05-09T05:44:55.278Z,15.80
2018-05-09T05:47:21.599Z,15.80
2018-05-09T05:49:48.038Z,15.90
2018-05-09T05:52:15.229Z,16.10
2018-05-09T05:54:41.613Z,16.20
2018-05-09T05:57:08.112Z,16.20
2018-05-09T05:59:35.227Z,16.30
2018-05-09T06:02:01.660Z,16.30
2018-05-09T06:04:28.088Z,16.30
2018-05-09T06:06:54.524Z,16.30
2018-05-09T06:09:21.009Z,16.40
2018-05-09T06:11:47.424Z,16.40
2018-05-09T06:14:13.796Z,16.40
2018-05-09T06:16:40.242Z,16.50
2018-05-09T06:19:06.615Z,16.50
2018-05-09T06:21:33.152Z,16.50
2018-05-09T06:24:00.324Z,16.60
2018-05-09T06:26:27.474Z,16.60
2018-05-09T06:28:53.853Z,16.60
2018-05-09T06:31:20.231Z,16.70
2018-05-09T06:33:46.697Z,16.80
2018-05-09T06:36:13.075Z,16.80
2018-05-09T06:38:40.278Z,16.90
2018-05-09T06:41:06.754Z,16.90
2018-05-09T06:43:33.200Z,17.00
2018-05-09T06:45:59.653Z,17.10
2018-05-09T06:48:26.080Z,17.20
2018-05-09T06:50:52.519Z,17.30
2018-05-09T06:53:18.928Z,17.30
2018-05-09T06:55:46.027Z,17.50
2018-05-09T06:58:12.461Z,17.50
2018-05-09T07:00:38.961Z,17.60
2018-05-09T07:03:05.398Z,17.70
2018-05-09T07:05:31.787Z,17.80
2018-05-09T07:07:58.925Z,18.00
2018-05-09T07:10:25.308Z,18.00
2018-05-09T07:12:51.748Z,18.10
2018-05-09T07:15:18.130Z,18.10
2018-05-09T07:17:44.611Z,18.20
2018-05-09T07:20:10.972Z,18.40
2018-05-09T07:22:37.913Z,18.40
2018-05-09T07:25:04.326Z,18.50
2018-05-09T07:27:30.790Z,18.70
2018-05-09T07:29:58.043Z,18.80
2018-05-09T07:32:25.255Z,18.80
2018-05-09T07:34:51.698Z,19.00
2018-05-09T07:37:18.931Z,18.90
2018-05-09T07:39:45.344Z,18.90
2018-05-09T07:42:11.798Z,18.90
2018-05-09T07:44:38.912Z,19.00
2018-05-09T07:47:05.335Z,19.00
2018-05-09T07:49:32.491Z,19.20
2018-05-09T07:51:58.862Z,19.10
2018-05-09T07:54:25.313Z,19.20
2018-05-09T07:56:51.758Z,19.30
2018-05-09T07:59:18.212Z,19.30
2018-05-09T08:01:44.634Z,19.40
2018-05-09T08:04:11.820Z,19.80
2018-05-09T08:06:38.248Z,19.70
2018-05-09T08:09:04.700Z,19.80
2018-05-09T08:11:31.120Z,19.40
2018-05-09T08:13:57.571Z,19.20
2018-05-09T08:16:24.026Z,19.10
2018-05-09T08:18:52.101Z,19.50
2018-05-09T08:21:18.591Z,19.40
2018-05-09T08:23:45.452Z,19.20
2018-05-09T08:26:11.824Z,19.30
2018-05-09T08:28:39.068Z,19.60
2018-05-09T08:31:06.205Z,19.80
2018-05-09T08:33:33.324Z,20.10
2018-05-09T08:35:59.757Z,20.00
2018-05-09T08:38:26.977Z,20.30
2018-05-09T08:40:53.958Z,20.30
2018-05-09T08:43:20.367Z,20.30
2018-05-09T08:45:46.790Z,20.40
2018-05-09T08:48:13.193Z,20.50
2018-05-09T08:50:39.601Z,20.50
2018-05-09T08:53:05.992Z,20.40
2018-05-09T08:55:32.511Z,20.20
2018-05-09T08:57:58.804Z,20.20
2018-05-09T09:00:25.188Z,20.30
2018-05-09T09:02:51.532Z,20.40
2018-05-09T09:05:17.887Z,20.60
2018-05-09T09:07:45.106Z,20.90
2018-05-09T09:10:12.283Z,21.00
2018-05-09T09:12:39.406Z,21.20
2018-05-09T09:15:05.801Z,21.10
2018-05-09T09:17:32.188Z,21.20
2018-05-09T09:19:58.630Z,21.20
2018-05-09T09:22:25.060Z,21.00
2018-05-09T09:24:51.512Z,21.10
2018-05-09T09:27:17.941Z,21.20
2018-05-09T09:29:44.420Z,21.10
2018-05-09T09:32:10.805Z,21.00
2018-05-09T09:34:37.289Z,20.90
2018-05-09T09:37:03.652Z,20.90
2018-05-09T09:39:30.037Z,20.90
2018-05-09T09:41:56.542Z,20.80
2018-05-09T09:44:22.970Z,20.80
2018-05-09T09:46:49.438Z,20.50
2018-05-09T09:49:15.801Z,20.60
2018-05-09T09:51:42.177Z,20.50
2018-05-09T09:54:09.516Z,20.60
2018-05-09T09:56:35.940Z,20.60
2018-05-09T09:59:02.740Z,20.70
2018-05-09T10:01:29.278Z,20.90
2018-05-09T10:03:55.640Z,21.00
2018-05-09T10:06:22.781Z,21.00
2018-05-09T10:08:50.006Z,21.10
2018-05-09T10:11:17.325Z,21.10
2018-05-09T10:13:43.750Z,21.10
2018-05-09T10:16:10.245Z,21.10
2018-05-09T10:18:37.294Z,21.50
2018-05-09T10:21:03.736Z,21.50
2018-05-09T10:23:30.883Z,21.60
2018-05-09T10:25:57.964Z,21.70
2018-05-09T10:28:24.363Z,21.70
2018-05-09T10:30:58.586Z,21.70
2018-05-09T10:33:25.680Z,21.70
2018-05-09T10:35:52.066Z,21.70
2018-05-09T10:38:18.464Z,21.70
2018-05-09T10:40:44.871Z,21.70
2018-05-09T10:43:11.303Z,21.80
2018-05-09T10:45:37.720Z,21.80
2018-05-09T10:48:04.139Z,21.90
2018-05-09T10:50:30.520Z,21.70
2018-05-09T10:52:57.725Z,21.50
2018-05-09T10:55:24.169Z,21.50
2018-05-09T10:57:50.548Z,21.40
2018-05-09T11:00:17.706Z,21.50
2018-05-09T11:02:44.112Z,21.50
2018-05-09T11:05:11.322Z,21.40
2018-05-09T11:07:37.725Z,21.40
2018-05-09T11:10:04.132Z,21.40
2018-05-09T11:12:31.324Z,21.70
2018-05-09T11:14:58.480Z,21.70
2018-05-09T11:17:24.891Z,21.80
2018-05-09T11:19:51.290Z,21.80
2018-05-09T11:22:17.749Z,21.80
2018-05-09T11:24:45.082Z,21.90
2018-05-09T11:27:11.440Z,22.00
2018-05-09T11:29:37.873Z,22.10
2018-05-09T11:32:04.276Z,22.20
2018-05-09T11:34:31.423Z,22.30
2018-05-09T11:36:58.574Z,22.30
2018-05-09T11:39:25.704Z,22.30
2018-05-09T11:41:52.166Z,22.30
2018-05-09T11:44:19.336Z,22.30
2018-05-09T11:46:45.792Z,22.30
2018-05-09T11:49:12.205Z,22.30
2018-05-09T11:51:38.637Z,22.40
2018-05-09T11:54:05.773Z,22.60
2018-05-09T11:56:32.216Z,22.60
2018-05-09T11:58:58.616Z,22.70
2018-05-09T12:01:25.759Z,22.80
2018-05-09T12:03:52.189Z,22.80
2018-05-09T12:06:19.331Z,23.10
2018-05-09T12:08:46.496Z,22.70
2018-05-09T12:11:13.669Z,22.80
2018-05-09T12:13:40.099Z,22.80
2018-05-09T12:16:06.528Z,22.70
2018-05-09T12:18:32.960Z,22.90
2018-05-09T12:20:59.354Z,22.70
2018-05-09T12:23:25.743Z,22.80
2018-05-09T12:25:52.137Z,22.80
2018-05-09T12:28:18.518Z,22.60
2018-05-09T12:30:44.920Z,22.60
2018-05-09T12:33:11.324Z,22.50
2018-05-09T12:35:37.737Z,22.40
2018-05-09T12:38:04.189Z,22.40
2018-05-09T12:40:31.325Z,22.30
2018-05-09T12:42:58.423Z,22.40
2018-05-09T12:45:24.829Z,22.40
2018-05-09T12:47:51.249Z,22.50
2018-05-09T12:50:17.648Z,22.50
2018-05-09T12:52:44.093Z,22.50
2018-05-09T12:55:10.489Z,22.60
2018-05-09T12:57:36.916Z,22.70
2018-05-09T13:00:04.004Z,22.70
2018-05-09T13:02:31.173Z,22.90
2018-05-09T13:04:57.552Z,22.90
2018-05-09T13:07:23.958Z,22.90
2018-05-09T13:09:50.368Z,22.90
2018-05-09T13:12:16.766Z,22.90
2018-05-09T13:14:43.168Z,23.00
2018-05-09T13:17:09.671Z,23.10
2018-05-09T13:19:36.045Z,23.30
2018-05-09T13:22:02.496Z,23.30
2018-05-09T13:24:29.630Z,22.90
2018-05-09T13:26:56.084Z,22.90
2018-05-09T13:29:23.252Z,22.80
2018-05-09T13:31:49.759Z,22.80
2018-05-09T13:34:16.819Z,23.10
2018-05-09T13:36:43.968Z,23.20
2018-05-09T13:39:11.131Z,23.30
2018-05-09T13:41:37.470Z,23.30
2018-05-09T13:44:03.866Z,23.50
2018-05-09T13:46:30.991Z,23.50
2018-05-09T13:48:57.403Z,23.50
2018-05-09T13:51:23.816Z,23.40
2018-05-09T13:53:50.334Z,23.50
2018-05-09T13:56:16.639Z,23.40
2018-05-09T13:58:43.767Z,23.50
2018-05-09T14:01:10.184Z,23.50
2018-05-09T14:03:36.682Z,23.30
2018-05-09T14:06:03.081Z,23.20
2018-05-09T14:08:29.448Z,23.20
2018-05-09T14:10:55.862Z,23.20
2018-05-09T14:13:23.132Z,23.30
2018-05-09T14:15:49.518Z,23.30
2018-05-09T14:18:16.528Z,23.20
2018-05-09T14:20:42.901Z,23.00
2018-05-09T14:23:09.391Z,23.00
2018-05-09T14:25:35.795Z,23.10
2018-05-09T14:28:02.198Z,23.10
2018-05-09T14:30:29.471Z,23.10
2018-05-09T14:32:55.892Z,23.10
2018-05-09T14:35:22.386Z,23.10
2018-05-09T14:37:48.901Z,23.10
2018-05-09T14:40:15.318Z,23.10
2018-05-09T14:42:41.745Z,23.00
2018-05-09T14:45:08.215Z,23.00
2018-05-09T14:47:34.705Z,23.10
2018-05-09T14:50:01.144Z,23.40
2018-05-09T14:52:27.589Z,23.90
2018-05-09T14:54:53.975Z,24.40
2018-05-09T14:57:20.450Z,25.10
2018-05-09T14:59:47.697Z,26.10
2018-05-09T15:02:14.893Z,26.20
2018-05-09T15:04:41.335Z,26.20
2018-05-09T15:07:07.737Z,25.60
2018-05-09T15:09:35.032Z,24.50
2018-05-09T15:12:01.393Z,24.50
2018-05-09T15:14:27.890Z,24.20
2018-05-09T15:16:54.353Z,24.10
2018-05-09T15:19:20.864Z,24.00
2018-05-09T15:21:47.225Z,23.80
2018-05-09T15:24:13.676Z,23.70
2018-05-09T15:26:40.090Z,23.70
2018-05-09T15:29:06.483Z,23.40
2018-05-09T15:31:33.897Z,23.60
2018-05-09T15:34:00.377Z,23.60
2018-05-09T15:36:26.805Z,23.70
2018-05-09T15:38:54.075Z,23.90
2018-05-09T15:41:20.420Z,23.90
2018-05-09T15:43:46.841Z,24.10
2018-05-09T15:46:13.270Z,24.20
2018-05-09T15:48:39.654Z,24.20
2018-05-09T15:51:06.130Z,24.10
2018-05-09T15:53:32.581Z,24.00
2018-05-09T15:55:59.099Z,24.00
2018-05-09T15:58:25.487Z,24.00
2018-05-09T16:00:52.704Z,23.90
2018-05-09T16:03:19.095Z,23.90
2018-05-09T16:05:46.233Z,23.80
2018-05-09T16:08:13.414Z,23.80
2018-05-09T16:10:40.628Z,23.90
2018-05-09T16:13:07.080Z,23.90
2018-05-09T16:15:33.501Z,23.90
2018-05-09T16:17:59.992Z,23.70
2018-05-09T16:20:26.413Z,23.60
2018-05-09T16:22:52.884Z,23.60
2018-05-09T16:25:20.034Z,23.70
2018-05-09T16:27:47.158Z,23.70
2018-05-09T16:30:13.591Z,23.70
2018-05-09T16:32:39.940Z,23.70
2018-05-09T16:35:06.352Z,23.80
2018-05-09T16:37:32.756Z,23.70
2018-05-09T16:39:59.250Z,23.60
2018-05-09T16:42:25.884Z,23.50
2018-05-09T16:44:52.384Z,23.50
2018-05-09T16:47:18.800Z,23.50
2018-05-09T16:49:45.205Z,23.60
2018-05-09T16:52:11.711Z,23.60
2018-05-09T16:54:38.166Z,23.70
2018-05-09T16:57:04.552Z,23.80
2018-05-09T16:59:30.994Z,23.70
2018-05-09T17:01:58.271Z,23.80
2018-05-09T17:04:24.709Z,23.80
2018-05-09T17:06:51.862Z,23.70
2018-05-09T17:09:18.308Z,23.70
2018-05-09T17:11:51.542Z,23.80
2018-05-09T17:14:17.949Z,23.70
2018-05-09T17:16:44.340Z,23.70
2018-05-09T17:19:10.719Z,23.70
2018-05-09T17:22:02.241Z,23.70
2018-05-09T17:24:28.629Z,23.70
2018-05-09T17:26:55.134Z,23.70
2018-05-09T17:29:22.293Z,23.80
2018-05-09T17:31:48.685Z,23.80
2018-05-09T17:34:15.128Z,23.90
2018-05-09T17:36:41.566Z,23.90
2018-05-09T17:39:07.904Z,23.80
2018-05-09T17:41:35.043Z,23.70
2018-05-09T17:44:02.224Z,23.70
2018-05-09T17:46:28.677Z,23.70
2018-05-09T17:48:55.292Z,23.70
2018-05-09T17:51:21.689Z,23.60
2018-05-09T17:53:48.163Z,23.50
2018-05-09T17:56:14.474Z,23.50
2018-05-09T17:58:40.976Z,23.50
2018-05-09T18:01:07.307Z,23.50
2018-05-09T18:03:33.697Z,23.50
2018-05-09T18:06:00.157Z,23.50
2018-05-09T18:08:26.557Z,23.50
2018-05-09T18:10:52.941Z,23.40
2018-05-09T18:13:20.106Z,23.30
2018-05-09T18:15:46.514Z,23.30
2018-05-09T18:18:13.672Z,23.20
2018-05-09T18:20:40.843Z,23.00
2018-05-09T18:23:07.254Z,23.00
2018-05-09T18:25:33.704Z,22.90
2018-05-09T18:28:00.116Z,22.70
2018-05-09T18:30:27.227Z,22.60
2018-05-09T18:32:53.725Z,22.50
2018-05-09T18:35:20.134Z,22.50
2018-05-09T18:37:47.296Z,22.30
2018-05-09T18:40:13.788Z,22.30
2018-05-09T18:42:40.178Z,22.20
2018-05-09T18:45:06.610Z,22.10
2018-05-09T18:47:33.051Z,22.00
2018-05-09T18:49:59.540Z,21.70
2018-05-09T18:52:25.934Z,21.60
2018-05-09T18:54:52.332Z,21.50
2018-05-09T18:57:18.694Z,21.40
2018-05-09T18:59:45.092Z,21.40
2018-05-09T19:02:11.516Z,21.30
2018-05-09T19:04:37.969Z,21.30
2018-05-09T19:07:04.394Z,21.20
2018-05-09T19:09:30.773Z,21.20
2018-05-09T19:11:57.238Z,21.20
2018-05-09T19:14:23.664Z,21.00
2018-05-09T19:16:50.132Z,21.00
2018-05-09T19:19:16.632Z,20.80
2018-05-09T19:21:43.035Z,20.70
2018-05-09T19:24:10.224Z,20.50
2018-05-09T19:26:36.664Z,20.50
2018-05-09T19:29:03.148Z,20.50
2018-05-09T19:31:29.520Z,20.40
2018-05-09T19:33:55.985Z,20.30
2018-05-09T19:36:23.181Z,20.40
2018-05-09T19:38:50.321Z,20.40
2018-05-09T19:41:17.645Z,20.30
2018-05-09T19:43:44.252Z,20.30
2018-05-09T19:46:11.659Z,20.30
2018-05-09T19:48:38.833Z,20.30
2018-05-09T19:51:05.328Z,20.30
2018-05-09T19:53:31.752Z,20.10
2018-05-09T19:55:58.116Z,20.10
2018-05-09T19:58:24.512Z,20.10
2018-05-09T20:00:51.179Z,19.90
2018-05-09T20:03:17.658Z,19.80
2018-05-09T20:05:44.139Z,19.80
2018-05-09T20:08:11.305Z,19.80
2018-05-09T20:10:38.718Z,19.80
2018-05-09T20:13:05.176Z,19.80
2018-05-09T20:15:32.400Z,19.70
2018-05-09T20:17:58.860Z,19.70
2018-05-09T20:20:26.072Z,19.70
2018-05-09T20:22:52.558Z,19.60
2018-05-09T20:25:18.933Z,19.60
2018-05-09T20:27:45.409Z,19.50
2018-05-09T20:30:17.796Z,19.40
2018-05-09T20:32:44.279Z,19.30
2018-05-09T20:35:10.684Z,19.20
2018-05-09T20:37:37.103Z,19.30
2018-05-09T20:40:03.533Z,19.40
2018-05-09T20:42:29.976Z,19.40
2018-05-09T20:44:56.362Z,19.40
2018-05-09T20:47:23.569Z,19.50
2018-05-09T20:49:50.029Z,19.50
2018-05-09T20:52:16.440Z,19.40
2018-05-09T20:54:42.831Z,19.40
2018-05-09T20:57:10.040Z,19.30
2018-05-09T20:59:36.482Z,19.20
2018-05-09T21:02:02.977Z,19.30
2018-05-09T21:04:29.472Z,19.20
2018-05-09T21:06:55.904Z,19.20
2018-05-09T21:09:22.331Z,19.20
2018-05-09T21:12:07.315Z,19.30
2018-05-09T21:14:33.832Z,19.50
2018-05-09T21:17:00.184Z,19.40
2018-05-09T21:19:26.592Z,19.50
2018-05-09T21:21:53.009Z,19.60
2018-05-09T21:24:19.477Z,19.70
2018-05-09T21:26:45.877Z,19.70
2018-05-09T21:29:13.099Z,19.70
2018-05-09T21:31:39.499Z,19.70
2018-05-09T21:34:05.941Z,19.60
2018-05-09T21:36:32.323Z,19.50
2018-05-09T21:38:58.805Z,19.50
2018-05-09T21:41:25.289Z,19.40
2018-05-09T21:43:51.700Z,19.20
2018-05-09T21:46:18.184Z,19.10
2018-05-09T21:48:44.588Z,19.00
2018-05-09T21:51:11.723Z,18.90
2018-05-09T21:53:38.862Z,19.00
2018-05-09T21:56:05.261Z,18.90
2018-05-09T21:58:31.654Z,18.80
2018-05-09T22:00:58.177Z,18.80
2018-05-09T22:03:25.346Z,19.00
2018-05-09T22:05:51.733Z,19.00
2018-05-09T22:08:18.126Z,19.00
2018-05-09T22:10:44.607Z,19.00
2018-05-09T22:13:11.053Z,19.00
2018-05-09T22:15:38.217Z,19.00
2018-05-09T22:18:04.668Z,19.00
2018-05-09T22:20:31.078Z,19.10
2018-05-09T22:22:58.058Z,19.00
2018-05-09T22:25:24.497Z,19.00
2018-05-09T22:27:50.909Z,19.00
2018-05-09T22:30:17.537Z,19.00
2018-05-09T22:32:43.962Z,19.10
2018-05-09T22:35:10.304Z,19.00
2018-05-09T22:37:36.788Z,19.00
2018-05-09T22:40:03.994Z,19.00
2018-05-09T22:42:30.472Z,18.90
2018-05-09T22:44:57.651Z,18.90
2018-05-09T22:47:24.056Z,18.90
2018-05-09T22:49:51.219Z,19.00
2018-05-09T22:52:18.405Z,19.00
2018-05-09T22:54:44.816Z,19.10
2018-05-09T22:57:11.260Z,19.00
2018-05-09T22:59:37.749Z,18.80
2018-05-09T23:02:05.029Z,18.80
2018-05-09T23:04:31.449Z,18.90
2018-05-09T23:06:57.881Z,18.90
2018-05-09T23:09:24.266Z,18.90
2018-05-09T23:11:50.804Z,18.90
2018-05-09T23:14:18.160Z,19.00
2018-05-09T23:16:44.561Z,19.00
2018-05-09T23:19:10.977Z,19.10
2018-05-09T23:21:37.421Z,18.90
2018-05-09T23:24:03.867Z,18.90
2018-05-09T23:26:30.265Z,18.80
2018-05-09T23:28:56.667Z,18.80
2018-05-09T23:31:23.101Z,18.70
2018-05-09T23:33:49.590Z,18.70
2018-05-09T23:36:15.960Z,18.60
2018-05-09T23:38:43.067Z,18.50
2018-05-09T23:41:09.469Z,18.50
2018-05-09T23:43:35.845Z,18.40
2018-05-09T23:46:02.233Z,18.50
2018-05-09T23:48:29.410Z,18.50
2018-05-09T23:50:55.828Z,18.50
2018-05-09T23:53:22.994Z,18.50
2018-05-09T23:55:49.468Z,18.50
2018-05-09T23:58:15.849Z,18.40
